createdAt,value
2017-06-02T02:04:37.440Z,76.4
2017-06-02T02:05:18.014Z,76.69
2017-06-02T02:05:58.711Z,76.88
2017-06-02T02:06:39.377Z,76.79
2017-06-02T02:07:19.899Z,76.79
2017-06-02T02:08:00.617Z,77.08
2017-06-02T02:08:41.302Z,76.69
2017-06-02T02:09:21.889Z,76.98
2017-06-02T02:10:02.618Z,76.98
2017-06-02T02:10:43.369Z,77.08
2017-06-02T02:11:25.006Z,76.79
2017-06-02T02:12:05.746Z,76.79
2017-06-02T02:12:46.335Z,76.79
2017-06-02T02:13:26.954Z,76.79
2017-06-02T02:14:08.728Z,76.6
2017-06-02T02:14:49.337Z,76.69
2017-06-02T02:15:29.936Z,76.88
2017-06-02T02:16:11.570Z,76.98
2017-06-02T02:16:52.139Z,76.98
2017-06-02T02:17:32.827Z,77.03
2017-06-02T02:18:13.517Z,76.94
2017-06-02T02:18:54.149Z,76.56
2017-06-02T02:19:34.789Z,77.03
2017-06-02T02:20:15.490Z,76.94
2017-06-02T02:20:56.207Z,77.13
2017-06-02T02:21:36.868Z,77.23
2017-06-02T02:22:17.502Z,76.94
2017-06-02T02:22:58.157Z,77.61
2017-06-02T02:23:38.813Z,77.42
2017-06-02T02:24:19.455Z,77.61
2017-06-02T02:25:01.121Z,77.7
2017-06-02T02:25:41.795Z,77.7
2017-06-02T02:26:22.474Z,77.51
2017-06-02T02:27:03.181Z,77.42
2017-06-02T02:27:43.896Z,77.51
2017-06-02T02:28:24.564Z,77.51
2017-06-02T02:29:05.294Z,77.42
2017-06-02T02:29:45.934Z,77.32
2017-06-02T02:30:26.653Z,77.32
2017-06-02T02:31:08.395Z,77.8
2017-06-02T02:31:50.049Z,77.42
2017-06-02T02:32:31.709Z,77.51
2017-06-02T02:33:12.371Z,77.42
2017-06-02T02:33:54.097Z,77.51
2017-06-02T02:34:34.709Z,77.42
2017-06-02T02:35:15.363Z,77.51
2017-06-02T02:35:56.139Z,77.7
2017-06-02T02:36:36.750Z,77.51
2017-06-02T02:37:17.453Z,77.51
2017-06-02T02:37:59.232Z,77.42
2017-06-02T02:38:39.831Z,77.7
2017-06-02T02:39:20.485Z,77.23
2017-06-02T02:40:01.187Z,77.51
2017-06-02T02:40:41.863Z,77.7
2017-06-02T02:41:22.498Z,77.7
2017-06-02T02:42:04.285Z,77.89
2017-06-02T02:42:46.973Z,77.8
2017-06-02T02:43:27.721Z,77.8
2017-06-02T02:44:08.337Z,77.7
2017-06-02T02:44:49.001Z,78.09
2017-06-02T02:45:29.683Z,78.47
2017-06-02T02:46:10.397Z,78.47
2017-06-02T02:46:51.098Z,78.28
2017-06-02T02:47:31.793Z,78.28
2017-06-02T02:48:12.534Z,78.28
2017-06-02T02:48:53.236Z,78.09
2017-06-02T02:49:33.859Z,78.28
2017-06-02T02:50:14.583Z,78.37
2017-06-02T02:50:55.293Z,78.28
2017-06-02T02:51:36.079Z,78.37
2017-06-02T02:52:16.749Z,78.47
2017-06-02T02:52:57.331Z,78.37
2017-06-02T02:53:38.003Z,78.28
2017-06-02T02:54:18.712Z,78.37
2017-06-02T02:54:59.334Z,78.56
2017-06-02T02:55:40.071Z,78.56
2017-06-02T02:56:20.869Z,78.47
2017-06-02T02:57:01.474Z,78.66
2017-06-02T02:57:42.251Z,78.66
2017-06-02T02:58:23.058Z,78.94
2017-06-02T02:59:03.833Z,78.94
2017-06-02T02:59:44.491Z,78.56
2017-06-02T03:00:25.200Z,78.94
2017-06-02T03:01:05.891Z,78.85
2017-06-02T03:01:46.593Z,79.04
2017-06-02T03:02:27.317Z,78.94
2017-06-02T03:03:08.039Z,78.94
2017-06-02T03:03:48.645Z,79.14
2017-06-02T03:04:30.391Z,78.94
2017-06-02T03:05:10.963Z,79.04
2017-06-02T03:05:52.650Z,78.94
2017-06-02T03:06:33.398Z,79.14
2017-06-02T03:07:14.121Z,79.14
2017-06-02T03:07:54.770Z,78.85
2017-06-02T03:08:36.518Z,79.14
2017-06-02T03:09:17.272Z,79.04
2017-06-02T03:09:57.921Z,78.85
2017-06-02T03:10:38.680Z,78.85
2017-06-02T03:11:19.446Z,79.04
2017-06-02T03:12:00.110Z,79.04
2017-06-02T03:12:42.772Z,79.04
2017-06-02T03:13:23.451Z,78.75
2017-06-02T03:14:04.109Z,78.85
2017-06-02T03:14:46.778Z,78.75
2017-06-02T03:15:27.488Z,78.94
2017-06-02T03:16:08.001Z,78.75
2017-06-02T03:16:48.741Z,78.75
2017-06-02T03:17:29.421Z,78.75
2017-06-02T03:18:10.211Z,78.56
2017-06-02T03:18:50.888Z,78.75
2017-06-02T03:19:31.566Z,78.66
2017-06-02T03:20:12.220Z,78.56
2017-06-02T03:20:52.877Z,78.85
2017-06-02T03:21:33.621Z,79.04
2017-06-02T03:22:14.182Z,78.94
2017-06-02T03:22:54.906Z,78.66
2017-06-02T03:23:35.667Z,78.94
2017-06-02T03:24:16.438Z,78.85
2017-06-02T03:24:57.188Z,78.75
2017-06-02T03:25:38.984Z,78.66
2017-06-02T03:26:19.758Z,78.66
2017-06-02T03:27:00.495Z,79.14
2017-06-02T03:27:41.137Z,78.66
2017-06-02T03:28:21.708Z,79.14
2017-06-02T03:29:03.460Z,78.75
2017-06-02T03:29:44.154Z,78.75
2017-06-02T03:30:24.718Z,78.66
2017-06-02T03:31:06.447Z,78.75
2017-06-02T03:31:48.108Z,78.94
2017-06-02T03:32:30.875Z,78.75
2017-06-02T03:33:11.576Z,78.85
2017-06-02T03:33:52.255Z,78.75
2017-06-02T03:34:33.025Z,78.85
2017-06-02T03:35:13.761Z,79.08
2017-06-02T03:35:54.512Z,78.37
2017-06-02T03:36:37.229Z,78.28
2017-06-02T03:37:17.812Z,78.51
2017-06-02T03:37:59.533Z,78.31
2017-06-02T03:38:40.281Z,78.03
2017-06-02T03:39:21.023Z,78.03
2017-06-02T03:40:01.778Z,78.51
2017-06-02T03:40:42.483Z,78.51
2017-06-02T03:41:23.146Z,78.31
2017-06-02T03:42:03.826Z,77.94
2017-06-02T03:42:44.566Z,78.31
2017-06-02T03:43:26.195Z,78.31
2017-06-02T03:44:06.873Z,78.13
2017-06-02T03:44:47.536Z,78.31
2017-06-02T03:45:28.185Z,78.31
2017-06-02T03:46:08.856Z,78.03
2017-06-02T03:46:49.507Z,78.03
2017-06-02T03:47:31.181Z,77.84
2017-06-02T03:48:11.884Z,77.87
2017-06-02T03:48:52.526Z,77.94
2017-06-02T03:49:34.280Z,77.65
2017-06-02T03:50:15.038Z,77.5
2017-06-02T03:50:56.731Z,77.4
2017-06-02T03:51:38.434Z,77.59
2017-06-02T03:52:19.160Z,77.4
2017-06-02T03:52:59.935Z,77.3
2017-06-02T03:53:40.870Z,77.59
2017-06-02T03:54:21.852Z,77.11
2017-06-02T03:55:02.454Z,77.21
2017-06-02T03:55:44.191Z,77.21
2017-06-02T03:56:24.853Z,77.11
2017-06-02T03:57:05.451Z,76.73
2017-06-02T03:57:46.133Z,77.11
2017-06-02T03:58:26.904Z,76.54
2017-06-02T03:59:07.659Z,76.73
2017-06-02T03:59:48.364Z,77.01
2017-06-02T04:00:30.044Z,77.21
2017-06-02T04:01:10.795Z,76.92
2017-06-02T04:01:51.452Z,76.73
2017-06-02T04:02:32.170Z,76.64
2017-06-02T04:03:19.416Z,76.82
2017-06-02T04:03:59.998Z,76.54
2017-06-02T04:04:42.736Z,76.82
2017-06-02T04:05:23.394Z,76.96
2017-06-02T04:06:05.083Z,32.99
2017-06-02T04:06:45.575Z,76
2017-06-02T04:07:28.214Z,76.29
2017-06-02T04:08:09.870Z,76.48
2017-06-02T04:08:50.398Z,76.48
2017-06-02T04:09:31.057Z,76.1
2017-06-02T04:10:13.672Z,76.2
2017-06-02T04:10:54.199Z,76.2
2017-06-02T04:11:34.868Z,76.1
2017-06-02T04:12:15.516Z,75.81
2017-06-02T04:12:57.200Z,75.91
2017-06-02T04:13:37.835Z,76.1
2017-06-02T04:14:23.520Z,75.91
2017-06-02T04:15:04.162Z,75.71
2017-06-02T06:10:56.751Z,69.81
2017-06-02T06:11:37.464Z,69.85
2017-06-02T06:12:18.048Z,69.85
2017-06-02T06:12:58.562Z,69.72
2017-06-02T06:13:39.186Z,69.85
2017-06-02T06:14:20.260Z,69.75
2017-06-02T06:15:00.792Z,69.56
2017-06-02T06:15:41.418Z,69.75
2017-06-02T06:16:21.987Z,69.75
2017-06-02T06:17:02.552Z,69.18
2017-06-02T06:17:43.324Z,69.37
2017-06-02T06:18:23.920Z,69.37
2017-06-02T06:19:04.457Z,69.37
2017-06-02T06:19:45.001Z,69.37
2017-06-02T06:20:25.555Z,69.37
2017-06-02T06:21:06.143Z,69.46
2017-06-02T06:21:46.698Z,68.98
2017-06-02T06:22:27.245Z,69.27
2017-06-02T06:23:07.833Z,68.83
2017-06-02T06:23:48.611Z,68.73
2017-06-02T06:24:29.512Z,68.6
2017-06-02T06:25:10.100Z,68.73
2017-06-02T06:25:50.758Z,68.73
2017-06-02T06:26:31.327Z,69.12
2017-06-02T06:27:12.218Z,68.63
2017-06-02T06:27:52.769Z,68.73
2017-06-02T06:28:33.703Z,68.73
2017-06-02T06:29:14.841Z,68.63
2017-06-02T06:29:55.859Z,68.44
2017-06-02T06:30:37.067Z,68.25
2017-06-02T06:31:17.627Z,68.35
2017-06-02T06:31:58.188Z,67.9
2017-06-02T06:32:38.753Z,68.19
2017-06-02T06:33:19.360Z,67.99
2017-06-02T06:33:59.939Z,67.99
2017-06-02T06:34:40.487Z,67.8
2017-06-02T06:35:22.171Z,67.51
2017-06-02T06:36:02.725Z,67.32
2017-06-02T06:36:43.270Z,67.45
2017-06-02T06:37:23.793Z,66.88
2017-06-02T06:38:04.350Z,67.07
2017-06-02T06:38:44.876Z,66.39
2017-06-02T06:39:25.450Z,66.52
2017-06-02T06:40:06.453Z,65.94
2017-06-02T06:40:47.040Z,65.69
2017-06-02T06:41:27.571Z,65.88
2017-06-02T06:42:08.193Z,65.4
2017-06-02T06:42:48.757Z,65.4
2017-06-02T06:43:29.356Z,65.01
2017-06-02T06:44:09.931Z,65.14
2017-06-02T06:44:51.536Z,64.56
2017-06-02T06:45:32.151Z,64.37
2017-06-02T06:46:12.787Z,63.98
2017-06-02T06:46:53.336Z,63.92
2017-06-02T06:47:34.007Z,63.34
2017-06-02T06:48:16.608Z,63.24
2017-06-02T06:48:57.234Z,62.96
2017-06-02T06:49:38.098Z,62.99
2017-06-02T06:50:18.622Z,62.22
2017-06-02T06:51:00.227Z,62.02
2017-06-02T06:51:40.779Z,61.93
2017-06-02T06:52:21.402Z,61.67
2017-06-02T06:53:02.150Z,61.38
2017-06-02T06:53:42.740Z,60.89
2017-06-02T06:54:23.306Z,60.64
2017-06-02T06:55:03.884Z,60.54
2017-06-02T06:55:44.536Z,60.44
2017-06-02T06:56:26.112Z,60.06
2017-06-02T06:57:06.661Z,59.58
2017-06-02T06:57:48.216Z,59.67
2017-06-02T06:58:29.810Z,59.22
2017-06-02T06:59:10.350Z,59.02
2017-06-02T06:59:50.939Z,58.64
2017-06-02T07:00:32.544Z,58.54
2017-06-02T07:01:13.099Z,58.06
2017-06-02T07:01:53.682Z,57.96
2017-06-02T07:02:34.267Z,57.96
2017-06-02T07:03:14.871Z,57.87
2017-06-02T07:03:57.511Z,57.96
2017-06-02T07:04:38.149Z,57.96
2017-06-02T07:05:18.698Z,57.38
2017-06-02T07:05:59.278Z,57.29
2017-06-02T07:06:40.841Z,57.19
2017-06-02T07:07:21.412Z,56.99
2017-06-02T07:08:01.986Z,56.8
2017-06-02T07:08:42.537Z,56.51
2017-06-02T07:09:23.075Z,56.41
2017-06-02T07:10:03.675Z,56.61
2017-06-02T07:10:44.357Z,56.9
2017-06-02T07:11:24.906Z,56.22
2017-06-02T07:12:05.420Z,56.51
2017-06-02T07:12:45.942Z,56.45
2017-06-02T07:13:26.508Z,56.22
2017-06-02T07:14:07.113Z,56.41
2017-06-02T07:14:47.655Z,55.74
2017-06-02T07:15:28.275Z,55.93
2017-06-02T07:16:08.864Z,55.83
2017-06-02T07:16:50.677Z,55.83
2017-06-02T07:17:31.287Z,56.03
2017-06-02T07:18:11.832Z,56.32
2017-06-02T07:18:52.491Z,56.41
2017-06-02T07:19:33.117Z,56.32
2017-06-02T07:20:13.768Z,56.13
2017-06-02T07:20:54.368Z,56.51
2017-06-02T07:21:34.953Z,56.61
2017-06-02T07:22:15.502Z,56.9
2017-06-02T07:22:56.018Z,56.71
2017-06-02T07:23:36.623Z,56.61
2017-06-02T07:24:17.223Z,56.71
2017-06-02T07:24:57.807Z,57.19
2017-06-02T07:25:38.354Z,57.19
2017-06-02T07:26:19.974Z,56.99
2017-06-02T07:27:00.501Z,56.41
2017-06-02T11:17:47.392Z,35.39
2017-06-02T11:18:28.330Z,35.31
2017-06-02T11:19:09.102Z,35.11
2017-06-02T11:19:49.756Z,35.11
2017-06-02T11:20:30.787Z,34.92
2017-06-02T11:21:11.592Z,34.92
2017-06-02T11:21:52.303Z,34.82
2017-06-02T11:22:32.994Z,34.63
2017-06-02T11:23:13.547Z,34.55
2017-06-02T11:23:54.167Z,34.35
2017-06-02T11:24:34.841Z,34.33
2017-06-02T11:25:15.416Z,33.96
2017-06-02T11:25:56.065Z,33.77
2017-06-02T11:26:36.666Z,34.06
2017-06-02T11:27:17.559Z,33.96
2017-06-02T11:27:58.218Z,33.75
2017-06-02T11:28:38.838Z,33.85
2017-06-02T11:29:19.580Z,33.75
2017-06-02T11:30:00.114Z,34.05
2017-06-02T11:30:40.716Z,33.95
2017-06-02T11:31:21.236Z,33.56
2017-06-02T11:32:01.802Z,33.75
2017-06-02T11:32:42.421Z,33.95
2017-06-02T11:33:22.934Z,33.44
2017-06-02T11:34:03.482Z,33.83
2017-06-02T11:34:44.037Z,34.22
2017-06-02T11:35:24.635Z,34.12
2017-06-02T11:36:05.290Z,34.14
2017-06-02T11:36:45.769Z,33.73
2017-06-02T11:37:26.379Z,33.93
2017-06-02T11:38:07.051Z,34.03
2017-06-02T11:38:47.750Z,33.93
2017-06-02T11:39:28.288Z,33.83
2017-06-02T11:40:09.289Z,33.83
2017-06-02T11:42:07.604Z,34.3
2017-06-02T11:42:48.264Z,34.3
2017-06-02T11:43:29.222Z,34.2
2017-06-02T11:44:10.084Z,34.4
2017-06-02T11:44:51.065Z,34.5
2017-06-02T11:45:31.795Z,34.5
2017-06-02T11:46:13.070Z,34.88
2017-06-02T11:46:53.610Z,34.69
2017-06-02T11:47:34.287Z,34.59
2017-06-02T11:48:14.821Z,34.59
2017-06-02T11:48:55.653Z,34.79
2017-06-02T11:49:37.429Z,34.59
2017-06-02T11:50:18.539Z,34.7
2017-06-02T11:50:59.914Z,34.52
2017-06-02T11:51:40.606Z,34.42
2017-06-02T11:52:21.666Z,34.42
2017-06-02T11:53:02.179Z,34.32
2017-06-02T11:53:42.723Z,34.33
2017-06-02T11:54:23.529Z,33.86
2017-06-02T11:55:04.084Z,33.75
2017-06-02T11:55:45.121Z,33.96
2017-06-02T11:56:25.700Z,33.96
2017-06-02T11:57:06.399Z,33.59
2017-06-02T11:57:47.046Z,33.59
2017-06-02T11:58:28.010Z,33.2
2017-06-02T11:59:08.792Z,32.91
2017-06-02T11:59:49.566Z,32.91
2017-06-02T12:00:30.183Z,32.81
2017-06-02T12:01:10.909Z,32.62
2017-06-02T12:01:51.486Z,32.62
2017-06-02T12:02:32.075Z,32.71
2017-06-02T12:03:12.818Z,32.62
2017-06-02T12:03:53.490Z,32.62
2017-06-02T12:04:34.083Z,32.62
2017-06-02T12:05:14.845Z,32.34
2017-06-02T12:05:55.486Z,32.34
2017-06-02T12:06:36.037Z,32.24
2017-06-02T12:07:16.900Z,32.05
2017-06-02T12:07:57.739Z,32.06
2017-06-02T12:08:38.631Z,32.16
2017-06-02T12:09:19.404Z,32.06
2017-06-02T12:10:00.086Z,31.96
2017-06-02T12:10:41.468Z,32.06
2017-06-02T12:11:23.033Z,31.77
2017-06-02T12:12:04.333Z,31.77
2017-06-02T12:12:44.716Z,31.77
2017-06-02T12:13:25.392Z,31.48
2017-06-02T12:14:06.102Z,31.48
2017-06-02T12:14:46.987Z,31.59
2017-06-02T12:15:27.571Z,31.4
2017-06-02T12:16:08.527Z,31.01
2017-06-02T12:16:49.206Z,31.49
2017-06-02T12:17:29.765Z,31.49
2017-06-02T12:18:10.641Z,31.4
2017-06-02T12:18:51.206Z,31.1
2017-06-02T12:19:31.883Z,30.93
2017-06-02T12:20:12.625Z,31.12
2017-06-02T12:20:53.173Z,31.12
2017-06-02T12:21:33.932Z,30.63
2017-06-02T12:22:14.841Z,30.44
2017-06-02T12:22:55.499Z,30.34
2017-06-02T12:23:36.066Z,30.24
2017-06-02T12:24:16.810Z,30.05
2017-06-02T12:24:57.448Z,30.15
2017-06-02T12:25:37.977Z,30.24
2017-06-02T12:26:18.793Z,30.22
2017-06-02T12:26:59.515Z,30.03
2017-06-02T12:27:40.232Z,29.93
2017-06-02T12:28:20.753Z,30.13
2017-06-02T12:29:01.518Z,29.83
2017-06-02T12:29:42.119Z,29.93
2017-06-02T12:30:22.662Z,29.93
2017-06-02T12:31:03.358Z,29.93
2017-06-02T12:31:43.938Z,30.03
2017-06-02T12:32:24.727Z,29.92
2017-06-02T12:33:05.894Z,29.92
2017-06-02T12:33:47.077Z,29.92
2017-06-02T12:34:27.828Z,30.21
2017-06-02T12:35:09.109Z,30.21
2017-06-02T12:35:49.675Z,30.51
2017-06-02T12:36:30.372Z,30.68
2017-06-02T12:37:11.257Z,30.98
2017-06-02T12:37:51.942Z,30.88
2017-06-02T12:38:32.496Z,30.58
2017-06-02T12:39:13.854Z,30.8
2017-06-02T12:39:55.085Z,30.7
2017-06-02T12:40:35.960Z,30.9
2017-06-02T12:41:16.600Z,30.9
2017-06-02T12:41:57.138Z,30.7
2017-06-02T12:42:37.825Z,30.62
2017-06-02T12:43:18.349Z,30.6
2017-06-02T12:44:39.447Z,30.62
2017-06-02T12:45:20.463Z,30.91
2017-06-02T12:46:01.007Z,30.91
2017-06-02T12:46:41.929Z,30.71
2017-06-02T12:47:22.700Z,30.81
2017-06-02T12:48:03.232Z,30.81
2017-06-02T12:48:43.941Z,30.81
2017-06-02T12:49:24.671Z,30.71
2017-06-02T12:50:05.201Z,30.71
2017-06-02T12:50:45.859Z,30.71
2017-06-02T12:51:26.391Z,30.81
2017-06-02T12:52:07.156Z,31.01
2017-06-02T12:52:47.721Z,31.19
2017-06-02T12:53:28.429Z,30.9
2017-06-02T12:54:08.981Z,30.7
2017-06-02T12:54:49.739Z,30.9
2017-06-02T12:55:30.388Z,30.9
2017-06-02T12:56:11.049Z,31.09
2017-06-02T12:56:51.726Z,31.07
2017-06-02T12:57:32.399Z,31.09
2017-06-02T12:58:13.233Z,31.07
2017-06-02T12:58:53.775Z,31.07
2017-06-02T12:59:34.494Z,31.19
2017-06-02T13:00:15.049Z,31.46
2017-06-02T13:00:55.892Z,31.48
2017-06-02T13:01:36.509Z,31.38
2017-06-02T13:02:17.045Z,31.28
2017-06-02T13:02:57.738Z,30.99
2017-06-02T13:03:38.229Z,31.19
2017-06-02T13:04:19.018Z,31.19
2017-06-02T13:04:59.799Z,30.71
2017-06-02T13:05:40.477Z,30.91
2017-06-02T13:06:21.092Z,30.62
2017-06-02T13:07:01.816Z,30.81
2017-06-02T13:07:42.479Z,30.71
2017-06-02T13:08:23.313Z,30.81
2017-06-02T13:09:04.093Z,30.42
2017-06-02T13:09:45.007Z,30.51
2017-06-02T13:10:25.540Z,30.51
2017-06-02T13:11:06.360Z,30.9
2017-06-02T13:11:47.271Z,30.7
2017-06-02T13:12:27.941Z,30.8
2017-06-02T13:13:08.684Z,30.9
2017-06-02T13:13:49.509Z,31.38
2017-06-02T13:14:30.218Z,31.28
2017-06-02T13:15:11.202Z,30.98
2017-06-02T13:15:51.946Z,31.37
2017-06-02T13:16:33.054Z,31.17
2017-06-02T13:17:15.320Z,30.98
2017-06-02T13:17:56.064Z,31.07
2017-06-02T13:18:36.737Z,31.35
2017-06-02T13:19:17.444Z,31.35
2017-06-02T13:19:58.216Z,31.45
2017-06-02T13:20:39.198Z,31.64
2017-06-02T13:21:19.921Z,31.64
2017-06-02T13:22:01.634Z,31.56
2017-06-02T13:22:42.289Z,31.45
2017-06-02T13:23:22.938Z,31.45
2017-06-02T13:24:03.593Z,31.74
2017-06-02T13:24:44.248Z,31.64
2017-06-02T13:25:24.900Z,31.84
2017-06-02T13:26:05.776Z,31.74
2017-06-02T13:26:46.432Z,32.03
2017-06-02T13:27:27.095Z,31.93
2017-06-02T13:28:07.825Z,31.93
2017-06-02T13:28:48.469Z,31.73
2017-06-02T13:29:29.061Z,31.92
2017-06-02T13:30:09.830Z,31.82
2017-06-02T13:30:50.547Z,31.92
2017-06-02T13:31:31.242Z,32.02
2017-06-02T13:32:11.946Z,32.11
2017-06-02T13:32:52.647Z,32.21
2017-06-02T13:33:33.323Z,32.02
2017-06-02T13:34:13.868Z,32.11
2017-06-02T13:34:54.594Z,32.02
2017-06-02T13:35:35.287Z,32.02
2017-06-02T13:36:15.837Z,32.11
2017-06-02T13:36:56.576Z,32.21
2017-06-02T13:37:37.206Z,32.21
2017-06-02T13:38:17.930Z,32.11
2017-06-02T13:38:58.586Z,32.11
2017-06-02T13:39:39.125Z,31.92
2017-06-02T13:40:19.777Z,32.21
2017-06-02T13:41:00.443Z,31.93
2017-06-02T13:41:41.162Z,32.03
2017-06-02T13:42:21.818Z,31.84
2017-06-02T13:43:02.371Z,31.92
2017-06-02T13:43:43.128Z,31.82
2017-06-02T13:44:23.795Z,31.73
2017-06-02T13:45:04.320Z,31.84
2017-06-02T13:45:45.065Z,31.84
2017-06-02T13:46:25.761Z,31.93
2017-06-02T13:47:06.279Z,31.82
2017-06-02T13:47:46.886Z,31.84
2017-06-02T13:48:28.765Z,31.74
2017-06-02T13:49:09.497Z,31.84
2017-06-02T13:49:50.152Z,31.64
2017-06-02T13:50:30.812Z,31.64
2017-06-02T13:51:11.457Z,31.64
2017-06-02T13:51:52.132Z,31.74
2017-06-02T13:52:32.809Z,31.56
2017-06-02T13:53:13.498Z,31.37
2017-06-02T13:53:54.062Z,31.37
2017-06-02T13:54:34.722Z,31.17
2017-06-02T13:55:16.787Z,31.38
2017-06-02T13:55:57.385Z,30.98
2017-06-02T13:56:37.932Z,30.8
2017-06-02T13:57:18.681Z,30.58
2017-06-02T13:57:59.750Z,31.07
2017-06-02T13:58:40.512Z,30.98
2017-06-02T13:59:21.243Z,30.68
2017-06-02T14:00:01.950Z,30.58
2017-06-02T14:00:42.655Z,30.78
2017-06-02T14:01:23.290Z,30.68
2017-06-02T14:02:04.316Z,30.88
2017-06-02T14:02:45.030Z,30.39
2017-06-02T14:03:25.686Z,31.07
2017-06-02T14:04:06.322Z,30.68
2017-06-02T14:04:48.014Z,30.78
2017-06-02T14:05:35.426Z,30.6
2017-06-02T14:06:15.969Z,30.6
2017-06-02T14:06:56.711Z,30.31
2017-06-02T14:07:37.487Z,30.02
2017-06-02T14:08:18.598Z,29.82
2017-06-02T14:08:59.351Z,29.82
2017-06-02T14:09:40.028Z,30.11
2017-06-02T14:10:20.741Z,30.11
2017-06-02T14:11:01.670Z,30.02
2017-06-02T14:11:42.212Z,30.21
2017-06-02T14:12:22.911Z,30.11
2017-06-02T14:13:04.527Z,29.92
2017-06-02T14:13:45.206Z,29.82
2017-06-02T14:14:25.855Z,29.92
2017-06-02T14:15:06.506Z,29.53
2017-06-02T14:15:47.158Z,29.64
2017-06-02T14:16:27.871Z,29.54
2017-06-02T14:17:08.575Z,29.74
2017-06-02T14:17:49.319Z,42.57
2017-06-02T14:18:29.849Z,29.85
2017-06-02T14:19:10.533Z,29.64
2017-06-02T14:19:51.346Z,29.56
2017-06-02T14:20:33.123Z,29.75
2017-06-02T14:21:14.770Z,29.75
2017-06-02T14:21:57.456Z,29.95
2017-06-02T14:22:39.146Z,30.03
2017-06-02T14:23:19.864Z,30.13
2017-06-02T14:24:00.411Z,30.22
2017-06-02T14:24:41.072Z,30.34
2017-06-02T14:25:23.192Z,30.05
2017-06-02T14:26:04.912Z,29.95
2017-06-02T14:26:45.458Z,29.85
2017-06-02T14:27:26.256Z,30.05
2017-06-02T14:28:06.931Z,29.83
2017-06-02T14:28:47.622Z,29.93
2017-06-02T14:29:28.150Z,29.83
2017-06-02T14:30:09.884Z,30.31
2017-06-02T14:30:50.598Z,30.13
2017-06-02T14:31:31.262Z,30.41
2017-06-02T14:32:11.792Z,30.31
2017-06-02T14:32:53.534Z,30.51
2017-06-02T14:33:35.185Z,30.51
2017-06-02T14:34:15.733Z,30.9
2017-06-02T14:34:56.416Z,30.8
2017-06-02T14:35:41.855Z,30.9
2017-06-02T14:36:22.503Z,30.7
2017-06-02T14:37:03.159Z,30.7
2017-06-02T14:37:45.789Z,30.78
2017-06-02T14:38:27.436Z,30.78
2017-06-02T14:39:08.084Z,30.78
2017-06-02T14:39:48.738Z,30.39
2017-06-02T14:40:29.429Z,30.39
2017-06-02T14:41:10.157Z,30.98
2017-06-02T14:41:50.914Z,30.68
2017-06-02T14:43:26.927Z,30.47
2017-06-02T14:44:08.548Z,30.47
2017-06-02T14:44:49.087Z,30.67
2017-06-02T14:45:29.650Z,30.77
2017-06-02T14:46:11.289Z,30.77
2017-06-02T14:46:52.891Z,30.67
2017-06-02T14:47:33.532Z,30.67
2017-06-02T14:48:14.195Z,30.68
2017-06-02T14:48:54.849Z,31.27
2017-06-02T14:49:35.508Z,30.39
2017-06-02T14:50:16.152Z,30.39
2017-06-02T14:50:56.806Z,30.58
2017-06-02T14:51:37.465Z,30.68
2017-06-02T14:52:18.040Z,30.88
2017-06-02T14:52:59.709Z,30.51
2017-06-02T14:53:40.302Z,30.7
2017-06-02T14:54:21.915Z,30.7
2017-06-02T14:55:02.454Z,30.7
2017-06-02T14:55:43.048Z,30.7
2017-06-02T14:56:23.580Z,30.9
2017-06-02T14:57:04.180Z,30.7
2017-06-02T14:57:44.707Z,30.51
2017-06-02T14:58:25.374Z,30.8
2017-06-02T14:59:06.952Z,30.71
2017-06-02T14:59:47.547Z,30.42
2017-06-02T15:00:28.072Z,30.22
2017-06-02T15:01:08.697Z,30.22
2017-06-02T15:01:49.262Z,30.32
2017-06-02T15:02:30.883Z,30.13
2017-06-02T15:03:11.430Z,30.32
2017-06-02T15:03:53.041Z,30.21
2017-06-02T15:04:33.679Z,30.31
2017-06-02T15:05:14.331Z,30.21
2017-06-02T15:05:54.920Z,30.21
2017-06-02T15:06:36.499Z,30.21
2017-06-02T15:07:17.201Z,30.41
2017-06-02T15:07:57.729Z,30.6
2017-06-02T15:08:38.317Z,30.71
2017-06-02T15:09:19.926Z,30.03
2017-06-02T15:10:00.476Z,30.32
2017-06-02T15:10:41.022Z,30.13
2017-06-02T15:11:21.557Z,29.95
2017-06-02T15:12:02.208Z,29.75
2017-06-02T15:12:42.734Z,29.66
2017-06-02T15:13:23.271Z,29.56
2017-06-02T15:14:03.874Z,29.77
2017-06-02T15:14:44.538Z,29.56
2017-06-02T15:15:25.234Z,29.47
2017-06-02T15:16:06.601Z,29.36
2017-06-02T15:16:48.207Z,29.46
2017-06-02T15:17:28.927Z,29.36
2017-06-02T15:18:09.633Z,29.46
2017-06-02T15:18:50.108Z,29.66
2017-06-02T15:19:30.708Z,29.64
2017-06-02T15:20:11.407Z,29.64
2017-06-02T15:20:52.038Z,29.93
2017-06-02T15:21:32.550Z,29.72
2017-06-02T15:22:13.230Z,30.02
2017-06-02T15:22:53.765Z,30.11
2017-06-02T15:23:34.315Z,30.6
2017-06-02T15:24:15.021Z,30.51
2017-06-02T15:24:55.707Z,30.49
2017-06-02T15:25:36.385Z,30.58
2017-06-02T15:26:16.965Z,30.39
2017-06-02T15:26:57.616Z,30.78
2017-06-02T15:27:38.180Z,30.78
2017-06-02T15:28:18.789Z,30.88
2017-06-02T15:28:59.445Z,30.88
2017-06-02T15:29:41.104Z,30.39
2017-06-02T15:30:21.673Z,30.78
2017-06-02T15:31:02.250Z,30.68
2017-06-02T15:31:42.916Z,30.68
2017-06-02T15:32:23.454Z,30.96
2017-06-02T15:33:04.083Z,31.25
2017-06-02T15:33:44.721Z,31.16
2017-06-02T15:34:25.245Z,31.45
2017-06-02T15:35:05.939Z,31.25
2017-06-02T15:35:46.570Z,31.25
2017-06-02T15:36:27.094Z,31.35
2017-06-02T15:37:07.685Z,31.35
2017-06-02T15:37:48.412Z,31.25
2017-06-02T15:38:28.979Z,31.27
2017-06-02T15:39:09.650Z,31.17
2017-06-02T15:39:50.319Z,31.27
2017-06-02T15:40:30.924Z,31.07
2017-06-02T15:41:11.453Z,31.19
2017-06-02T15:41:52.091Z,30.88
2017-06-02T15:42:32.761Z,30.68
2017-06-02T15:43:13.402Z,31.19
2017-06-02T15:43:55.977Z,30.41
2017-06-02T15:44:36.643Z,30.99
2017-06-02T15:45:17.299Z,30.8
2017-06-02T15:45:57.968Z,30.7
2017-06-02T15:46:38.692Z,30.9
2017-06-02T15:47:19.715Z,30.51
2017-06-02T15:48:00.386Z,30.6
2017-06-02T15:48:41.076Z,30.8
2017-06-02T15:49:21.677Z,30.8
2017-06-02T15:50:02.384Z,30.51
2017-06-02T15:50:42.995Z,30.7
2017-06-02T15:51:23.648Z,30.9
2017-06-02T15:52:04.205Z,30.9
2017-06-02T15:52:44.874Z,30.68
2017-06-02T15:53:25.723Z,30.78
2017-06-02T15:54:06.418Z,30.88
2017-06-02T15:54:47.056Z,30.88
2017-06-02T15:55:27.756Z,30.68
2017-06-02T15:56:08.357Z,30.88
2017-06-02T15:56:50.241Z,30.88
2017-06-02T15:57:30.937Z,30.88
2017-06-02T15:58:11.476Z,30.78
2017-06-02T15:58:52.068Z,30.88
2017-06-02T15:59:32.647Z,30.58
2017-06-02T16:00:13.564Z,30.88
2017-06-02T16:00:54.065Z,30.49
2017-06-02T16:01:34.692Z,30.88
2017-06-02T16:02:15.238Z,30.88
2017-06-02T16:02:55.866Z,31.07
2017-06-02T16:03:36.432Z,30.78
2017-06-02T16:04:17.124Z,30.88
2017-06-02T16:04:57.733Z,30.88
2017-06-02T16:05:38.375Z,30.39
2017-06-02T16:06:19.056Z,30.41
2017-06-02T16:07:00.162Z,30.6
2017-06-02T16:07:40.695Z,30.7
2017-06-02T16:08:21.227Z,30.41
2017-06-02T16:09:01.954Z,30.7
2017-06-02T16:09:42.522Z,30.31
2017-06-02T16:10:23.433Z,30.11
2017-06-02T16:11:03.990Z,30.21
2017-06-02T16:11:44.605Z,30.21
2017-06-02T16:12:25.362Z,30.51
2017-06-02T16:13:05.888Z,30.6
2017-06-02T16:13:46.564Z,30.9
2017-06-02T16:14:27.159Z,30.7
2017-06-02T16:15:08.129Z,30.99
2017-06-02T16:15:48.914Z,31.19
2017-06-02T16:16:30.540Z,31.38
2017-06-02T16:17:11.226Z,31.28
2017-06-02T16:17:51.956Z,31.28
2017-06-02T16:18:32.475Z,31.09
2017-06-02T16:19:13.158Z,31.28
2017-06-02T16:19:53.849Z,31.09
2017-06-02T16:20:34.838Z,31.28
2017-06-02T16:21:15.456Z,31.28
2017-06-02T16:21:56.151Z,31.19
2017-06-02T16:22:36.694Z,31.19
2017-06-02T16:23:17.240Z,31.19
2017-06-02T16:23:57.882Z,31.19
2017-06-02T16:24:38.431Z,31.28
2017-06-02T16:25:19.106Z,31.38
2017-06-02T16:25:59.751Z,31.46
2017-06-02T16:26:40.347Z,31.46
2017-06-02T16:27:20.888Z,31.56
2017-06-02T16:28:01.405Z,32.05
2017-06-02T16:28:41.939Z,32.05
2017-06-02T16:29:22.455Z,31.66
2017-06-02T16:30:03.125Z,31.95
2017-06-02T16:30:43.664Z,31.95
2017-06-02T16:31:24.322Z,32.05
2017-06-02T16:32:04.847Z,32.15
2017-06-02T16:32:45.506Z,32.24
2017-06-02T16:33:26.035Z,32.34
2017-06-02T16:34:06.554Z,32.82
2017-06-02T16:34:47.083Z,32.24
2017-06-02T16:35:27.602Z,32.24
2017-06-02T16:36:08.290Z,32.15
2017-06-02T16:36:48.917Z,32.24
2017-06-02T16:37:29.434Z,32.15
2017-06-02T16:38:10.026Z,32.05
2017-06-02T16:38:50.683Z,32.05
2017-06-02T16:39:31.358Z,32.05
2017-06-02T16:40:11.982Z,32.15